Time;durP1;ratioP1;P1;durP2;ratioP2;P2;SDS_P1;SDS_P2;PMS_P1;PMS_P2;Temp;Humidity;BMP_temperature;BMP_pressure;BME280_temperature;BME280_humidity;BME280_pressure;Samples;Min_cycle;Max_cycle;Signal;HPM_P1;HPM_P2
2023/04/04 00:00:27;;;;;;;11.23;4.70;;;1.40;99.90;;;;;;6275773;22;20347;-88
2023/04/04 00:03:37;;;;;;;10.80;4.87;;;1.40;99.90;;;;;;6273724;22;20015;-88
2023/04/04 00:14:01;;;;;;;14.37;5.00;;;0.10;99.90;;;;;;6280378;22;20023;-88
2023/04/04 00:16:27;;;;;;;12.90;4.60;;;0.70;99.90;;;;;;6283087;22;20019;-88
2023/04/04 00:19:17;;;;;;;14.23;5.23;;;0.70;99.90;;;;;;6291802;22;20018;-88
2023/04/04 00:22:01;;;;;;;10.90;4.70;;;1.10;99.90;;;;;;6274319;22;20012;-88
2023/04/04 00:24:33;;;;;;;10.60;4.50;;;0.60;99.90;;;;;;6277527;22;20016;-88
2023/04/04 00:27:07;;;;;;;9.83;4.10;;;0.40;99.90;;;;;;6277513;22;20007;-88
2023/04/04 00:29:41;;;;;;;11.38;4.75;;;-0.30;99.90;;;;;;6276648;22;20004;-88
2023/04/04 00:32:22;;;;;;;13.20;4.90;;;0.30;99.90;;;;;;6273512;22;20103;-88
2023/04/04 00:35:01;;;;;;;11.47;4.50;;;0.60;99.90;;;;;;6274834;22;20015;-88
2023/04/04 00:40:11;;;;;;;12.03;4.67;;;0.50;99.90;;;;;;6293849;22;20023;-89
2023/04/04 00:42:43;;;;;;;10.90;4.97;;;0.50;99.90;;;;;;6273077;22;20107;-88
2023/04/04 00:45:35;;;;;;;11.13;5.00;;;0.10;99.90;;;;;;6273236;22;20023;-87
2023/04/04 00:48:01;;;;;;;13.90;4.77;;;1.90;99.90;;;;;;6299619;22;20016;-88
2023/04/04 00:50:27;;;;;;;12.97;4.77;;;1.50;99.90;;;;;;6300527;22;20439;-88
2023/04/04 00:53:08;;;;;;;13.63;4.90;;;0.20;99.90;;;;;;6274127;22;20098;-88
2023/04/04 00:55:38;;;;;;;12.50;4.77;;;0.00;99.90;;;;;;6301418;22;20093;-87
2023/04/04 00:58:18;;;;;;;11.23;4.93;;;0.10;99.90;;;;;;6276616;22;20020;-87
2023/04/04 01:00:44;;;;;;;15.17;5.17;;;1.30;99.90;;;;;;6260512;22;20020;-88
2023/04/04 01:07:01;;;;;;;13.10;4.67;;;-0.30;99.90;;;;;;6276607;22;20049;-87
2023/04/04 01:09:28;;;;;;;13.53;4.80;;;0.10;99.90;;;;;;6278009;22;20015;-88
2023/04/04 01:11:54;;;;;;;10.40;4.27;;;-0.60;99.90;;;;;;6278119;22;20012;-88
2023/04/04 01:14:35;;;;;;;12.50;4.47;;;0.20;99.90;;;;;;6241760;22;20089;-88
2023/04/04 01:17:02;;;;;;;11.00;4.83;;;0.30;99.90;;;;;;6275517;22;20344;-88
2023/04/04 01:19:55;;;;;;;11.70;4.73;;;-0.30;99.90;;;;;;6303052;22;20335;-87
2023/04/04 01:22:22;;;;;;;12.73;4.30;;;-0.50;99.90;;;;;;6280121;22;20454;-88
2023/04/04 01:25:07;;;;;;;11.67;4.37;;;-0.30;99.90;;;;;;6308155;22;20092;-88
2023/04/04 01:27:33;;;;;;;12.00;4.70;;;0.40;99.90;;;;;;6307828;22;20017;-87
2023/04/04 01:30:00;;;;;;;10.83;4.23;;;-0.60;99.90;;;;;;6308482;22;20016;-88
2023/04/04 01:32:50;;;;;;;11.37;4.50;;;-0.50;99.90;;;;;;6308491;22;20370;-88
2023/04/04 01:35:42;;;;;;;10.43;4.10;;;-0.30;99.90;;;;;;6279571;22;20012;-88
2023/04/04 01:39:11;;;;;;;10.13;4.20;;;-0.40;99.90;;;;;;6308665;22;20019;-87
2023/04/04 01:41:38;;;;;;;10.80;4.33;;;-0.30;99.90;;;;;;6306468;22;20745;-88
2023/04/04 01:44:03;;;;;;;10.80;4.33;;;-0.80;99.90;;;;;;6308459;22;20017;-88
2023/04/04 01:46:57;;;;;;;12.97;4.47;;;0.80;99.90;;;;;;6286481;22;20040;-88
2023/04/04 01:49:42;;;;;;;11.52;4.53;;;-0.70;99.90;;;;;;6300411;22;20023;-88
2023/04/04 01:52:08;;;;;;;;;;;-0.80;99.90;;;;;;6317319;22;20011;-87
2023/04/04 01:54:34;;;;;;;11.57;4.47;;;-0.70;99.90;;;;;;6309363;22;19915;-88
2023/04/04 01:57:18;;;;;;;11.40;4.20;;;-1.00;99.90;;;;;;6308545;22;20011;-88
2023/04/04 01:59:44;;;;;;;11.60;4.35;;;-0.50;99.90;;;;;;6309205;22;20030;-88
2023/04/04 02:02:10;;;;;;;11.77;4.40;;;-1.00;99.90;;;;;;6281251;22;20007;-88
2023/04/04 02:04:56;;;;;;;10.70;4.77;;;-1.00;99.90;;;;;;6307351;22;20022;-88
2023/04/04 02:07:22;;;;;;;10.83;4.10;;;-0.10;99.90;;;;;;6279600;22;20011;-88
2023/04/04 02:09:47;;;;;;;13.07;4.30;;;0.00;99.90;;;;;;6280038;22;20405;-88
2023/04/04 02:12:28;;;;;;;11.90;4.57;;;-1.20;99.90;;;;;;6253973;22;20076;-89
2023/04/04 02:14:54;;;;;;;11.00;4.20;;;-1.10;99.90;;;;;;6280756;22;20023;-88
2023/04/04 02:17:20;;;;;;;10.53;4.33;;;-0.80;99.90;;;;;;6307114;22;20015;-88
2023/04/04 02:19:55;;;;;;;10.60;4.07;;;-0.90;99.90;;;;;;6308619;22;20339;-88
2023/04/04 02:22:20;;;;;;;12.10;4.40;;;-0.20;99.90;;;;;;6308413;22;20518;-88
2023/04/04 02:24:46;;;;;;;10.93;3.80;;;-1.30;99.90;;;;;;6279556;22;20039;-89
2023/04/04 02:27:30;;;;;;;12.57;4.53;;;-0.40;99.90;;;;;;6280520;22;20019;-88
2023/04/04 02:29:56;;;;;;;11.30;4.10;;;-1.20;99.90;;;;;;6308478;22;20011;-88
2023/04/04 02:32:34;;;;;;;10.30;4.23;;;0.20;99.90;;;;;;6307265;22;20011;-87
2023/04/04 02:35:18;;;;;;;12.20;3.90;;;-0.40;99.90;;;;;;6280177;22;20008;-88
2023/04/04 02:37:55;;;;;;;;;;;-0.90;99.90;;;;;;6308227;22;20085;-88
2023/04/04 02:40:21;;;;;;;11.43;4.00;;;-1.80;99.90;;;;;;6307735;22;19915;-88
2023/04/04 02:42:46;;;;;;;9.93;4.10;;;-1.00;99.90;;;;;;6280859;22;20011;-88
2023/04/04 02:45:13;;;;;;;11.77;4.03;;;-1.20;99.90;;;;;;6289928;22;20034;-89
2023/04/04 02:47:51;;;;;;;11.60;4.43;;;-1.40;99.90;;;;;;6305940;22;20466;-89
2023/04/04 02:50:17;;;;;;;9.87;3.80;;;-1.40;99.90;;;;;;6305752;22;20027;-89
2023/04/04 02:52:43;;;;;;;12.10;4.20;;;-1.30;99.90;;;;;;6305548;22;20015;-89
2023/04/04 02:55:09;;;;;;;10.53;4.33;;;-1.30;99.90;;;;;;6307697;22;20016;-89
2023/04/04 02:57:47;;;;;;;;;;;;;;;;;;;;;
2023/04/04 03:00:14;;;;;;;11.60;4.33;;;-0.20;99.90;;;;;;6331091;22;20064;-89
2023/04/04 03:02:39;;;;;;;12.37;4.10;;;-1.40;99.90;;;;;;6306255;22;20037;-89
2023/04/04 03:07:56;;;;;;;10.50;4.13;;;-1.60;99.90;;;;;;6321585;22;20067;-89
2023/04/04 03:13:50;;;;;;;11.10;4.20;;;-2.00;99.90;;;;;;6306186;22;20038;-88
2023/04/04 03:16:16;;;;;;;9.40;3.80;;;-1.40;99.90;;;;;;6307293;22;20090;-88
2023/04/04 03:18:43;;;;;;;12.27;4.20;;;-1.90;99.90;;;;;;6305885;22;20493;-88
2023/04/04 03:21:30;;;;;;;12.73;4.47;;;-1.70;99.90;;;;;;6308796;22;20018;-88
2023/04/04 03:23:55;;;;;;;10.13;4.10;;;-2.00;99.90;;;;;;6334665;22;20003;-89
2023/04/04 03:26:39;;;;;;;11.43;4.37;;;-1.10;99.90;;;;;;6307759;22;20454;-89
2023/04/04 03:29:05;;;;;;;10.30;4.40;;;-1.30;99.90;;;;;;6306752;22;20100;-89
2023/04/04 03:31:30;;;;;;;11.00;4.20;;;-2.00;99.90;;;;;;6305915;22;20047;-89
2023/04/04 03:34:05;;;;;;;12.93;4.40;;;-1.90;99.90;;;;;;6296491;22;20019;-89
2023/04/04 03:36:31;;;;;;;12.50;4.33;;;-1.00;99.90;;;;;;6305065;22;20019;-89
2023/04/04 03:39:18;;;;;;;12.43;4.63;;;-2.00;99.90;;;;;;6307561;22;20077;-89
2023/04/04 03:41:44;;;;;;;11.20;4.63;;;-2.20;99.90;;;;;;6305061;22;20037;-88
2023/04/04 03:44:10;;;;;;;10.87;4.40;;;-2.00;99.90;;;;;;6277731;22;20011;-88
2023/04/04 03:46:35;;;;;;;10.37;3.93;;;-2.10;99.90;;;;;;6307504;22;20015;-89
2023/04/04 03:49:01;;;;;;;11.37;4.37;;;-1.90;99.90;;;;;;6303194;22;20007;-89
2023/04/04 03:51:45;;;;;;;12.67;4.63;;;-2.10;99.90;;;;;;6309894;22;20093;-88
2023/04/04 03:54:11;;;;;;;11.63;4.70;;;-2.30;99.90;;;;;;6310575;22;20011;-88
2023/04/04 03:56:36;;;;;;;12.80;4.93;;;-2.00;99.90;;;;;;6336244;22;20018;-88
2023/04/04 03:59:20;;;;;;;13.50;4.67;;;-2.30;99.90;;;;;;6338562;22;20060;-88
2023/04/04 04:01:46;;;;;;;11.70;4.63;;;-1.30;99.90;;;;;;6310060;22;20064;-88
2023/04/04 04:04:12;;;;;;;12.07;4.67;;;-2.20;99.90;;;;;;6335336;22;20007;-88
2023/04/04 04:06:47;;;;;;;11.57;4.77;;;-2.20;99.90;;;;;;6310412;22;20094;-88
2023/04/04 04:09:13;;;;;;;13.13;4.53;;;-2.10;99.90;;;;;;6309651;22;20007;-88
2023/04/04 04:11:39;;;;;;;11.63;5.27;;;-2.20;99.90;;;;;;6311228;22;20450;-89
2023/04/04 04:14:14;;;;;;;12.77;5.07;;;-2.20;99.90;;;;;;6338641;22;20015;-89
2023/04/04 04:16:40;;;;;;;12.30;4.97;;;-2.10;99.90;;;;;;6309966;22;20022;-88
2023/04/04 04:19:21;;;;;;;11.73;4.50;;;-2.20;99.90;;;;;;6310318;22;20050;-88
2023/04/04 04:21:47;;;;;;;11.20;4.70;;;-1.70;99.90;;;;;;6310022;22;20011;-88
2023/04/04 04:24:12;;;;;;;10.87;4.53;;;-2.20;99.90;;;;;;6309736;22;20155;-88
2023/04/04 04:26:56;;;;;;;11.33;4.60;;;-2.00;99.90;;;;;;6312578;22;20094;-88
2023/04/04 04:29:42;;;;;;;11.32;4.70;;;-0.50;99.90;;;;;;6340371;22;20109;-88
2023/04/04 04:32:25;;;;;;;11.93;4.50;;;-1.90;99.90;;;;;;6339300;22;20015;-89
2023/04/04 04:34:54;;;;;;;11.57;4.30;;;-1.40;99.90;;;;;;6312636;22;20337;-88
2023/04/04 04:37:24;;;;;;;13.07;4.77;;;-2.20;99.90;;;;;;6339212;22;20068;-88
2023/04/04 04:40:15;;;;;;;14.23;5.10;;;-2.70;99.90;;;;;;6312599;22;20023;-88
2023/04/04 04:43:06;;;;;;;11.13;4.67;;;-0.30;99.90;;;;;;6339727;22;20018;-88
2023/04/04 04:45:32;;;;;;;11.03;4.50;;;-2.00;99.90;;;;;;6307362;22;20006;-88
2023/04/04 04:47:57;;;;;;;13.27;4.93;;;-2.30;99.90;;;;;;6329768;22;20054;-88
2023/04/04 04:51:16;;;;;;;10.10;4.33;;;-0.80;99.90;;;;;;6283352;22;20402;-88
2023/04/04 04:53:46;;;;;;;12.63;4.47;;;-2.30;99.90;;;;;;6309027;22;20017;-88
2023/04/04 04:56:12;;;;;;;11.90;4.53;;;-2.40;99.90;;;;;;6282933;22;20351;-88
2023/04/04 04:58:38;;;;;;;11.13;4.83;;;-2.10;99.90;;;;;;6303011;22;20152;-88
2023/04/04 05:01:13;;;;;;;11.23;5.17;;;-2.40;99.90;;;;;;6283784;22;20046;-88
2023/04/04 05:03:38;;;;;;;12.87;4.83;;;-2.40;99.90;;;;;;6311524;22;20474;-88
2023/04/04 05:06:14;;;;;;;13.63;5.00;;;-1.80;99.90;;;;;;6308618;22;20019;-88
2023/04/04 05:08:43;;;;;;;11.77;4.87;;;-1.80;99.90;;;;;;6281724;22;20011;-89
2023/04/04 05:13:56;;;;;;;11.80;4.33;;;-2.20;99.90;;;;;;6280232;22;20023;-88
2023/04/04 05:16:34;;;;;;;10.33;4.73;;;-2.00;99.90;;;;;;6280985;22;20072;-88
2023/04/04 05:19:25;;;;;;;11.87;4.57;;;-0.70;99.90;;;;;;6309420;22;20019;-88
2023/04/04 05:21:52;;;;;;;11.47;4.50;;;-1.20;99.90;;;;;;6309017;22;20316;-87
2023/04/04 05:24:18;;;;;;;12.83;4.50;;;-0.90;99.90;;;;;;6308411;22;20015;-87
2023/04/04 05:26:45;;;;;;;13.27;4.80;;;-2.10;99.90;;;;;;6280416;22;20019;-88
2023/04/04 05:29:29;;;;;;;11.90;4.50;;;-2.20;99.90;;;;;;6281469;22;20011;-88
2023/04/04 05:31:54;;;;;;;11.52;4.63;;;-1.60;99.90;;;;;;6309014;22;20045;-87
2023/04/04 05:34:30;;;;;;;13.53;4.67;;;-1.00;99.90;;;;;;6307334;22;20003;-88
2023/04/04 05:36:56;;;;;;;10.03;4.13;;;-2.10;99.90;;;;;;6308305;22;20020;-87
2023/04/04 05:39:38;;;;;;;14.30;4.47;;;-1.50;99.90;;;;;;6307648;22;20491;-87
2023/04/04 05:42:06;;;;;;;11.20;4.37;;;-2.20;99.90;;;;;;6309181;22;20047;-88
2023/04/04 05:44:32;;;;;;;11.40;4.63;;;-1.60;99.90;;;;;;6308903;22;20065;-88
2023/04/04 05:47:06;;;;;;;12.43;4.90;;;-2.00;99.90;;;;;;6282053;22;20011;-88
2023/04/04 05:49:50;;;;;;;10.97;4.60;;;-1.60;99.90;;;;;;6308473;22;20325;-87
2023/04/04 05:52:25;;;;;;;11.13;3.92;;;-0.60;99.90;;;;;;6308550;22;20023;-87
2023/04/04 05:55:03;;;;;;;9.73;4.20;;;-1.80;99.90;;;;;;6280101;22;20015;-88
2023/04/04 05:57:29;;;;;;;11.60;4.03;;;-1.30;99.90;;;;;;6280930;22;20011;-88
2023/04/04 06:00:48;;;;;;;10.73;4.00;;;0.20;99.90;;;;;;6308159;22;20068;-88
2023/04/04 06:03:36;;;;;;;10.70;3.70;;;-0.10;99.90;;;;;;6279972;22;20046;-87
2023/04/04 06:06:12;;;;;;;11.20;3.73;;;0.00;99.90;;;;;;6310180;22;20019;-89
2023/04/04 06:08:55;;;;;;;9.17;3.57;;;-1.00;99.90;;;;;;6315365;22;20015;-88
2023/04/04 06:11:21;;;;;;;10.40;3.42;;;-1.00;99.90;;;;;;6274521;22;20043;-84
2023/04/04 06:14:12;;;;;;;9.67;3.40;;;-0.50;99.90;;;;;;6278546;22;20459;-83
2023/04/04 06:16:57;;;;;;;14.70;3.80;;;0.80;99.90;;;;;;6275382;22;20007;-83
2023/04/04 06:19:32;;;;;;;9.03;3.37;;;-0.50;99.90;;;;;;6301386;22;20027;-83
2023/04/04 06:22:07;;;;;;;8.87;3.23;;;0.00;99.90;;;;;;6278410;22;20015;-84
2023/04/04 06:24:36;;;;;;;10.23;3.20;;;-0.20;99.90;;;;;;6276889;22;20080;-84
2023/04/04 06:27:01;;;;;;;10.23;2.80;;;0.10;99.90;;;;;;6277233;22;20012;-83
2023/04/04 06:29:46;;;;;;;10.30;3.27;;;0.10;99.90;;;;;;6300768;22;20443;-83
2023/04/04 06:32:12;;;;;;;7.63;2.70;;;0.40;99.90;;;;;;6301630;22;20316;-83
2023/04/04 06:35:24;;;;;;;9.60;3.37;;;0.20;99.90;;;;;;6278685;22;20026;-83
2023/04/04 06:37:54;;;;;;;8.50;3.07;;;1.30;99.90;;;;;;6274364;22;20462;-81
2023/04/04 06:40:21;;;;;;;9.80;3.17;;;0.60;99.90;;;;;;6277139;22;20012;-82
2023/04/04 06:43:00;;;;;;;8.17;2.90;;;0.20;99.90;;;;;;6276792;22;20344;-82
2023/04/04 06:45:27;;;;;;;8.80;2.83;;;1.80;99.90;;;;;;6275582;22;20011;-82
2023/04/04 06:47:53;;;;;;;9.57;2.80;;;0.40;99.90;;;;;;6277135;22;20018;-82
2023/04/04 06:50:21;;;;;;;8.93;2.90;;;0.40;99.90;;;;;;6276678;22;20035;-82
2023/04/04 06:52:46;;;;;;;9.70;2.90;;;0.50;99.90;;;;;;6300350;22;20008;-82
2023/04/04 06:55:12;;;;;;;10.57;3.10;;;0.50;99.90;;;;;;6300607;22;20343;-82
2023/04/04 06:57:38;;;;;;;9.80;3.27;;;0.60;99.90;;;;;;6276854;22;20016;-82
2023/04/04 07:00:34;;;;;;;9.40;3.00;;;0.50;99.90;;;;;;6273518;22;20019;-81
2023/04/04 07:03:05;;;;;;;8.70;3.10;;;-0.40;99.90;;;;;;6277078;22;20050;-81
2023/04/04 07:05:31;;;;;;;10.27;2.80;;;2.40;99.90;;;;;;6275478;22;20492;-81
2023/04/04 07:07:57;;;;;;;11.87;2.93;;;0.50;99.90;;;;;;6274954;22;20098;-82
2023/04/04 07:10:24;;;;;;;8.60;2.90;;;0.70;99.90;;;;;;6277087;22;20034;-82
2023/04/04 07:12:50;;;;;;;9.83;3.10;;;0.70;99.90;;;;;;6302201;22;20577;-81
2023/04/04 07:15:28;;;;;;;10.83;3.17;;;2.20;99.90;;;;;;6305619;22;20039;-81
2023/04/04 07:18:00;;;;;;;9.27;2.80;;;0.60;99.90;;;;;;6307753;22;20017;-81
2023/04/04 07:20:27;;;;;;;11.67;3.00;;;0.60;99.90;;;;;;6306252;22;20015;-81
2023/04/04 07:22:56;;;;;;;9.33;3.33;;;0.90;99.90;;;;;;6280011;22;20012;-81
2023/04/04 07:25:39;;;;;;;8.63;3.00;;;1.00;99.90;;;;;;6279794;22;20045;-82
2023/04/04 07:42:33;;;;;;;9.07;3.30;;;2.00;99.90;;;;;;6273120;22;20062;-81
2023/04/04 07:44:59;;;;;;;9.23;2.87;;;1.70;99.90;;;;;;6278528;22;20387;-81
2023/04/04 07:47:36;;;;;;;7.50;2.40;;;1.60;99.90;;;;;;6275336;22;20015;-81
2023/04/04 07:50:03;;;;;;;10.50;2.80;;;2.60;99.90;;;;;;6274600;22;20046;-81
2023/04/04 07:52:29;;;;;;;9.03;2.77;;;1.90;99.90;;;;;;6280983;22;20439;-81
2023/04/04 07:54:54;;;;;;;8.50;2.70;;;2.10;99.90;;;;;;6275454;22;20348;-82
2023/04/04 07:57:20;;;;;;;8.50;2.60;;;3.10;99.90;;;;;;6276040;22;20011;-82
2023/04/04 07:59:46;;;;;;;10.00;2.70;;;2.20;99.90;;;;;;6275948;22;20018;-82
2023/04/04 08:02:12;;;;;;;8.33;2.50;;;2.30;99.90;;;;;;6273354;22;20015;-82
2023/04/04 08:04:37;;;;;;;9.47;3.40;;;2.40;99.90;;;;;;6276368;22;20015;-82
2023/04/04 08:07:03;;;;;;;8.43;2.60;;;2.50;99.90;;;;;;6275898;22;20347;-82
2023/04/04 08:09:33;;;;;;;9.37;2.93;;;2.60;99.90;;;;;;6272908;22;20057;-82
2023/04/04 08:12:00;;;;;;;9.77;2.50;;;2.70;99.90;;;;;;6274372;22;20478;-82
2023/04/04 08:14:26;;;;;;;8.97;2.57;;;2.80;99.90;;;;;;6275949;22;20012;-82
2023/04/04 08:16:52;;;;;;;8.70;2.80;;;2.90;99.90;;;;;;6273518;22;20339;-82
2023/04/04 08:19:18;;;;;;;7.27;2.47;;;3.00;99.90;;;;;;6275672;22;20016;-82
2023/04/04 08:21:44;;;;;;;7.50;2.40;;;3.10;99.90;;;;;;6274167;22;20011;-82
2023/04/04 08:24:10;;;;;;;7.77;2.43;;;3.20;99.90;;;;;;6272973;22;20444;-81
2023/04/04 08:26:36;;;;;;;9.00;2.60;;;3.30;99.90;;;;;;6274290;22;20015;-81
2023/04/04 08:29:01;;;;;;;8.70;2.40;;;3.40;99.90;;;;;;6276159;22;20431;-82
2023/04/04 08:31:28;;;;;;;8.93;2.37;;;3.50;99.90;;;;;;6272922;22;20471;-81
2023/04/04 08:33:54;;;;;;;8.13;2.50;;;3.60;99.90;;;;;;6273979;22;20016;-82
2023/04/04 08:36:20;;;;;;;7.07;2.40;;;3.70;99.90;;;;;;6275108;22;20015;-82
2023/04/04 08:38:45;;;;;;;9.00;2.67;;;3.90;99.90;;;;;;6276231;22;20079;-82
2023/04/04 08:41:12;;;;;;;8.53;2.80;;;4.90;99.90;;;;;;6275785;22;20019;-82
2023/04/04 08:43:40;;;;;;;7.43;2.50;;;4.10;99.90;;;;;;6272984;22;20015;-82
2023/04/04 08:46:08;;;;;;;6.93;2.43;;;4.20;99.90;;;;;;6274880;22;20024;-83
2023/04/04 08:48:36;;;;;;;7.60;2.17;;;4.30;99.90;;;;;;6275913;22;20019;-82
2023/04/04 08:51:03;;;;;;;11.80;2.47;;;4.50;99.90;;;;;;6275385;22;20008;-82
2023/04/04 08:53:31;;;;;;;8.03;2.20;;;4.70;99.90;;;;;;6276200;22;20065;-82
2023/04/04 08:55:59;;;;;;;8.00;2.37;;;4.80;99.90;;;;;;6276411;22;20061;-82
2023/04/04 08:58:25;;;;;;;9.47;2.33;;;4.80;99.90;;;;;;6273339;22;20016;-83
2023/04/04 09:00:54;;;;;;;8.80;2.37;;;4.90;99.90;;;;;;6276283;22;20023;-82
2023/04/04 09:03:29;;;;;;;8.57;2.07;;;5.00;99.90;;;;;;6275866;22;20047;-82
2023/04/04 09:05:55;;;;;;;7.90;2.27;;;5.20;99.90;;;;;;6275438;22;20083;-82
2023/04/04 09:08:25;;;;;;;7.93;2.10;;;5.20;99.90;;;;;;6274083;22;20408;-83
2023/04/04 09:10:51;;;;;;;8.47;2.63;;;5.30;99.90;;;;;;6274585;22;20049;-82
2023/04/04 09:16:06;;;;;;;9.27;2.20;;;5.50;99.90;;;;;;6332527;22;20022;-82
2023/04/04 09:18:31;;;;;;;7.17;2.00;;;5.00;99.90;;;;;;6316301;22;20015;-82
2023/04/04 09:20:57;;;;;;;7.40;2.47;;;5.60;99.90;;;;;;6340248;22;20101;-83
2023/04/04 09:23:23;;;;;;;7.93;2.40;;;5.80;99.90;;;;;;6313973;22;20022;-82
2023/04/04 09:25:54;;;;;;;7.87;2.20;;;5.90;99.90;;;;;;6342826;22;20011;-82
2023/04/04 09:28:21;;;;;;;9.20;2.30;;;5.90;99.90;;;;;;6311838;22;20015;-82
2023/04/04 09:30:51;;;;;;;7.43;2.27;;;6.00;99.90;;;;;;6312607;22;20092;-83
2023/04/04 09:33:18;;;;;;;12.10;2.50;;;6.30;99.90;;;;;;6338626;22;20074;-82
2023/04/04 09:36:11;;;;;;;7.43;2.40;;;6.10;99.90;;;;;;6337997;22;20373;-83
2023/04/04 09:38:42;;;;;;;7.70;2.37;;;6.20;99.90;;;;;;6308065;22;20022;-83
2023/04/04 09:41:09;;;;;;;8.47;2.20;;;6.30;99.90;;;;;;6338347;22;20389;-83
2023/04/04 09:43:36;;;;;;;8.47;2.67;;;6.40;99.90;;;;;;6339646;22;20030;-83
2023/04/04 09:46:02;;;;;;;9.23;2.50;;;6.40;99.90;;;;;;6339496;22;20006;-83
2023/04/04 09:48:32;;;;;;;8.87;2.50;;;6.50;99.90;;;;;;6310464;22;20023;-83
2023/04/04 09:50:58;;;;;;;9.70;2.70;;;6.60;99.90;;;;;;6311492;22;20025;-82
2023/04/04 09:53:24;;;;;;;8.23;2.50;;;6.70;99.90;;;;;;6303140;22;20016;-83
2023/04/04 09:56:15;;;;;;;7.90;2.60;;;6.80;99.90;;;;;;6274976;22;20331;-83
2023/04/04 09:58:47;;;;;;;7.03;2.17;;;6.40;99.90;;;;;;6276256;22;20019;-86
2023/04/04 10:01:20;;;;;;;14.10;2.83;;;7.70;99.90;;;;;;6274606;22;20094;-86
2023/04/04 10:03:58;;;;;;;9.60;2.67;;;8.40;99.90;;;;;;6276914;22;20463;-84
2023/04/04 10:06:28;;;;;;;8.70;2.40;;;6.90;99.90;;;;;;6274845;22;20020;-86
2023/04/04 10:09:04;;;;;;;7.67;2.30;;;7.90;99.90;;;;;;6274252;22;20023;-86
2023/04/04 10:11:34;;;;;;;8.60;2.53;;;7.60;99.90;;;;;;6274270;22;20022;-85
2023/04/04 10:14:02;;;;;;;9.70;2.50;;;7.70;99.90;;;;;;6274429;22;20086;-85
2023/04/04 10:16:36;;;;;;;9.40;2.40;;;8.80;99.90;;;;;;6274372;22;20459;-85
2023/04/04 10:22:59;;;;;;;10.10;2.60;;;8.00;99.90;;;;;;6274183;22;20352;-87
2023/04/04 10:25:29;;;;;;;7.32;2.20;;;9.00;99.90;;;;;;6276302;22;20016;-89
2023/04/04 10:28:07;;;;;;;8.45;2.50;;;9.00;99.90;;;;;;6275583;22;20050;-87
2023/04/04 10:30:48;;;;;;;7.38;2.40;;;8.80;99.90;;;;;;6274583;22;20046;-86
2023/04/04 10:33:53;;;;;;;7.38;2.40;;;8.90;99.90;;;;;;6275381;22;20022;-87
2023/04/04 10:36:33;;;;;;;8.05;2.42;;;9.70;99.90;;;;;;6276027;22;20081;-87
2023/04/04 10:39:14;;;;;;;6.80;2.10;;;9.80;99.90;;;;;;6276696;22;20016;-86
2023/04/04 10:41:50;;;;;;;9.57;2.50;;;9.90;99.90;;;;;;6277499;22;20022;-85
2023/04/04 10:44:23;;;;;;;7.25;2.10;;;10.30;99.90;;;;;;6276087;22;20328;-85
2023/04/04 10:47:15;;;;;;;6.85;2.10;;;8.90;99.90;;;;;;6280439;22;20100;-86
2023/04/04 10:49:49;;;;;;;6.55;2.03;;;9.00;99.40;;;;;;6279712;22;20011;-85
2023/04/04 10:52:30;;;;;;;;;;;9.30;99.90;;;;;;6277189;22;20447;-85
2023/04/04 10:55:24;;;;;;;8.07;2.55;;;9.90;98.90;;;;;;6280146;22;19915;-85
2023/04/04 10:58:03;;;;;;;8.88;2.30;;;9.50;99.90;;;;;;6281620;22;20098;-84
2023/04/04 11:00:58;;;;;;;7.38;2.35;;;9.60;99.90;;;;;;6275454;22;20451;-85
2023/04/04 11:03:24;;;;;;;8.93;2.35;;;9.60;99.90;;;;;;6274875;22;20016;-85
2023/04/04 11:06:00;;;;;;;7.93;2.30;;;8.90;99.90;;;;;;6276534;22;20309;-85
2023/04/04 11:08:53;;;;;;;9.18;2.50;;;10.50;99.90;;;;;;6277047;22;20087;-84
2023/04/04 11:11:25;;;;;;;7.85;2.50;;;9.20;97.40;;;;;;6273297;22;20023;-84
2023/04/04 11:14:07;;;;;;;8.40;2.38;;;10.50;97.30;;;;;;6280312;22;20019;-84
2023/04/04 11:17:12;;;;;;;7.00;2.40;;;8.90;99.90;;;;;;6305499;22;20015;-86
2023/04/04 11:20:22;;;;;;;8.15;2.33;;;9.40;99.90;;;;;;6305899;22;20094;-84
2023/04/04 11:23:20;;;;;;;8.82;2.38;;;9.20;99.90;;;;;;6280074;22;20088;-85
2023/04/04 11:26:02;;;;;;;7.93;2.30;;;10.00;98.30;;;;;;6306650;22;20020;-85
2023/04/04 11:28:55;;;;;;;8.88;2.60;;;10.00;99.80;;;;;;6279964;22;20007;-85
2023/04/04 11:31:49;;;;;;;8.73;2.70;;;9.80;95.90;;;;;;6279637;22;20015;-85
2023/04/04 11:34:31;;;;;;;7.70;2.20;;;10.00;99.80;;;;;;6305554;22;20449;-85
2023/04/04 11:37:00;;;;;;;5.80;2.10;;;11.40;99.50;;;;;;6307737;22;20022;-85
2023/04/04 11:39:56;;;;;;;;;;;10.30;99.90;;;;;;6278615;22;20015;-85
2023/04/04 11:42:22;;;;;;;7.63;2.22;;;10.60;95.10;;;;;;6307508;22;19937;-85
2023/04/04 11:44:48;;;;;;;6.18;2.05;;;10.80;99.90;;;;;;6307552;22;20034;-85
2023/04/04 11:47:13;;;;;;;6.35;2.10;;;11.10;99.90;;;;;;6304030;22;20023;-84
2023/04/04 11:49:45;;;;;;;7.70;2.40;;;11.20;99.80;;;;;;6307369;22;20008;-86
2023/04/04 11:52:16;;;;;;;8.25;2.45;;;12.30;99.00;;;;;;6307070;22;20015;-86
2023/04/04 11:54:45;;;;;;;6.68;2.00;;;12.30;98.40;;;;;;6306957;22;20015;-86
2023/04/04 11:57:14;;;;;;;6.90;2.20;;;11.20;97.20;;;;;;6307272;22;20384;-85
2023/04/04 11:59:42;;;;;;;7.47;2.00;;;11.20;97.60;;;;;;6305534;22;20389;-86
2023/04/04 12:08:56;;;;;;;8.32;2.25;;;11.30;92.20;;;;;;6305991;22;20064;-85
2023/04/04 12:11:24;;;;;;;6.82;2.38;;;12.40;97.60;;;;;;6307003;22;20030;-85
2023/04/04 12:13:50;;;;;;;6.38;2.30;;;12.40;97.20;;;;;;6279126;22;20015;-84
2023/04/04 12:16:18;;;;;;;7.50;2.20;;;11.20;97.00;;;;;;6287917;22;20011;-85
2023/04/04 12:18:45;;;;;;;8.13;2.17;;;11.90;96.20;;;;;;6324295;22;20018;-84
2023/04/04 12:21:10;;;;;;;7.40;2.13;;;11.10;96.60;;;;;;6306296;22;20019;-85
2023/04/04 12:23:36;;;;;;;6.15;2.15;;;11.40;96.70;;;;;;6309243;22;20019;-85
2023/04/04 12:26:04;;;;;;;7.38;2.30;;;11.50;96.40;;;;;;6309851;22;20015;-84
2023/04/04 12:28:33;;;;;;;8.80;2.17;;;11.70;96.40;;;;;;6307391;22;20050;-84
2023/04/04 12:31:04;;;;;;;8.65;2.30;;;12.60;96.60;;;;;;6305875;22;20343;-85
2023/04/04 12:33:34;;;;;;;7.10;2.40;;;12.10;96.40;;;;;;6307626;22;20019;-84
2023/04/04 12:36:02;;;;;;;7.68;2.08;;;12.50;96.50;;;;;;6278935;22;20011;-84
2023/04/04 12:38:29;;;;;;;8.70;2.42;;;12.60;96.30;;;;;;6279774;22;20027;-84
2023/04/04 12:40:55;;;;;;;7.53;2.30;;;12.60;96.10;;;;;;6305134;22;20094;-84
2023/04/04 12:43:21;;;;;;;8.10;2.50;;;12.20;95.70;;;;;;6304321;22;20097;-84
2023/04/04 12:45:49;;;;;;;7.15;2.30;;;12.80;95.60;;;;;;6279830;22;20116;-85
2023/04/04 12:48:16;;;;;;;7.15;2.30;;;11.80;94.60;;;;;;6306792;22;20473;-84
2023/04/04 12:50:57;;;;;;;7.22;2.30;;;11.70;95.70;;;;;;6308076;22;20098;-86
2023/04/04 12:53:27;;;;;;;8.07;2.53;;;11.90;94.60;;;;;;6308063;22;20049;-88
2023/04/04 12:56:09;;;;;;;7.07;2.30;;;12.00;93.60;;;;;;6308869;22;20094;-86
2023/04/04 12:58:36;;;;;;;7.32;2.30;;;12.00;95.00;;;;;;6308100;22;20022;-86
2023/04/04 13:01:19;;;;;;;6.60;2.28;;;12.00;95.00;;;;;;6281473;22;20072;-85
2023/04/04 13:04:07;;;;;;;8.00;2.30;;;13.00;93.90;;;;;;6280273;22;20019;-85
2023/04/04 13:06:48;;;;;;;7.07;2.20;;;12.80;93.40;;;;;;6308794;22;20331;-85
2023/04/04 13:09:22;;;;;;;7.20;2.20;;;11.90;94.40;;;;;;6281269;22;20129;-86
2023/04/04 13:12:01;;;;;;;9.35;2.35;;;13.00;94.00;;;;;;6306592;22;20052;-88
2023/04/04 13:14:47;;;;;;;7.90;2.60;;;11.90;92.70;;;;;;6306383;22;20094;-86
2023/04/04 13:17:14;;;;;;;7.47;2.60;;;12.50;94.10;;;;;;6307873;22;20402;-87
2023/04/04 13:19:40;;;;;;;9.32;2.70;;;13.00;94.70;;;;;;6280639;22;20019;-87
2023/04/04 13:22:08;;;;;;;7.05;2.45;;;12.10;94.50;;;;;;6308725;22;20021;-86
2023/04/04 13:24:33;;;;;;;10.48;2.42;;;13.20;94.60;;;;;;6275211;22;20031;-87
2023/04/04 13:27:14;;;;;;;7.85;2.45;;;13.50;94.70;;;;;;6275567;22;20015;-87
2023/04/04 13:29:40;;;;;;;8.70;2.53;;;13.40;92.70;;;;;;6277908;22;20432;-87
2023/04/04 13:32:24;;;;;;;8.25;2.33;;;13.40;94.90;;;;;;6249741;22;20023;-87
2023/04/04 13:34:49;;;;;;;9.93;2.70;;;13.30;89.60;;;;;;6278143;22;20008;-87
2023/04/04 13:37:30;;;;;;;8.32;2.95;;;13.30;94.60;;;;;;6275701;22;20348;-87
2023/04/04 13:40:11;;;;;;;8.23;2.55;;;12.20;92.10;;;;;;6274736;22;20012;-88
2023/04/04 13:42:36;;;;;;;9.75;2.80;;;13.20;91.30;;;;;;6275622;22;20020;-88
2023/04/04 13:45:08;;;;;;;7.28;2.50;;;13.40;94.50;;;;;;6298709;22;20025;-87
2023/04/04 13:47:37;;;;;;;9.32;2.70;;;12.40;92.60;;;;;;6282861;22;20080;-88
2023/04/04 13:50:06;;;;;;;9.23;2.97;;;13.60;94.30;;;;;;6275603;22;20026;-88
2023/04/04 13:52:32;;;;;;;9.10;2.65;;;12.60;92.70;;;;;;6300808;22;20065;-88
2023/04/04 13:55:49;;;;;;;8.23;2.40;;;12.70;94.50;;;;;;6279609;22;20023;-88
2023/04/04 13:58:40;;;;;;;8.38;2.80;;;12.60;91.40;;;;;;6317509;22;20023;-88
2023/04/04 14:01:27;;;;;;;8.80;2.90;;;12.20;91.60;;;;;;6282016;22;20027;-88
2023/04/04 14:04:02;;;;;;;8.95;2.90;;;11.70;93.00;;;;;;6306796;22;20022;-88
2023/04/04 14:06:48;;;;;;;8.68;2.75;;;13.10;94.20;;;;;;6308453;22;20011;-88
2023/04/04 14:09:28;;;;;;;7.65;2.60;;;13.50;93.40;;;;;;6307091;22;20073;-88
2023/04/04 14:12:16;;;;;;;9.57;2.65;;;12.90;93.20;;;;;;6280896;22;20048;-89